sensor_id;sensor_type;location;lat;lon;timestamp;P1;durP1;ratioP1;P2;durP2;ratioP2
13973;SDS011;7060;43.770;4.008;2022-10-19T00:01:17;12.37;;;7.80;;
13973;SDS011;7060;43.770;4.008;2022-10-19T00:03:47;7.40;;;6.63;;
13973;SDS011;7060;43.770;4.008;2022-10-19T00:06:18;9.07;;;7.67;;
13973;SDS011;7060;43.770;4.008;2022-10-19T00:08:53;9.97;;;8.97;;
13973;SDS011;7060;43.770;4.008;2022-10-19T00:11:23;8.00;;;7.23;;
13973;SDS011;7060;43.770;4.008;2022-10-19T00:13:52;10.40;;;7.87;;
13973;SDS011;7060;43.770;4.008;2022-10-19T00:16:21;11.83;;;8.47;;
13973;SDS011;7060;43.770;4.008;2022-10-19T00:18:51;10.63;;;8.37;;
13973;SDS011;7060;43.770;4.008;2022-10-19T00:21:22;9.53;;;7.47;;
13973;SDS011;7060;43.770;4.008;2022-10-19T00:23:52;9.37;;;8.07;;
13973;SDS011;7060;43.770;4.008;2022-10-19T00:26:20;9.13;;;8.20;;
13973;SDS011;7060;43.770;4.008;2022-10-19T00:28:51;10.93;;;8.57;;
13973;SDS011;7060;43.770;4.008;2022-10-19T00:31:20;9.73;;;7.37;;
13973;SDS011;7060;43.770;4.008;2022-10-19T00:33:49;8.23;;;7.23;;
13973;SDS011;7060;43.770;4.008;2022-10-19T00:36:19;9.83;;;7.33;;
13973;SDS011;7060;43.770;4.008;2022-10-19T00:38:48;10.00;;;7.23;;
13973;SDS011;7060;43.770;4.008;2022-10-19T00:41:20;11.50;;;8.37;;
13973;SDS011;7060;43.770;4.008;2022-10-19T00:43:50;9.70;;;7.13;;
13973;SDS011;7060;43.770;4.008;2022-10-19T00:46:21;9.47;;;8.20;;
13973;SDS011;7060;43.770;4.008;2022-10-19T00:48:49;9.20;;;7.87;;
13973;SDS011;7060;43.770;4.008;2022-10-19T00:51:19;9.00;;;7.67;;
13973;SDS011;7060;43.770;4.008;2022-10-19T00:53:48;9.47;;;7.70;;
13973;SDS011;7060;43.770;4.008;2022-10-19T00:56:19;9.10;;;7.07;;
13973;SDS011;7060;43.770;4.008;2022-10-19T00:58:47;9.90;;;7.60;;
13973;SDS011;7060;43.770;4.008;2022-10-19T01:01:16;10.63;;;7.57;;
13973;SDS011;7060;43.770;4.008;2022-10-19T01:03:47;11.67;;;7.17;;
13973;SDS011;7060;43.770;4.008;2022-10-19T01:06:17;8.83;;;7.83;;
13973;SDS011;7060;43.770;4.008;2022-10-19T01:08:46;9.33;;;7.10;;
13973;SDS011;7060;43.770;4.008;2022-10-19T01:11:20;8.93;;;7.73;;
13973;SDS011;7060;43.770;4.008;2022-10-19T01:13:58;9.67;;;8.67;;
13973;SDS011;7060;43.770;4.008;2022-10-19T01:16:37;11.13;;;7.37;;
13973;SDS011;7060;43.770;4.008;2022-10-19T01:19:21;8.87;;;7.60;;
13973;SDS011;7060;43.770;4.008;2022-10-19T01:22:16;9.60;;;8.70;;
13973;SDS011;7060;43.770;4.008;2022-10-19T01:24:58;10.50;;;7.30;;
13973;SDS011;7060;43.770;4.008;2022-10-19T01:27:46;10.60;;;7.73;;
13973;SDS011;7060;43.770;4.008;2022-10-19T01:30:29;11.20;;;7.77;;
13973;SDS011;7060;43.770;4.008;2022-10-19T01:33:12;13.57;;;7.30;;
13973;SDS011;7060;43.770;4.008;2022-10-19T01:35:58;11.17;;;8.80;;
13973;SDS011;7060;43.770;4.008;2022-10-19T01:38:33;10.90;;;8.80;;
13973;SDS011;7060;43.770;4.008;2022-10-19T01:41:09;11.60;;;9.40;;
13973;SDS011;7060;43.770;4.008;2022-10-19T01:43:42;10.03;;;8.53;;
13973;SDS011;7060;43.770;4.008;2022-10-19T01:46:19;8.90;;;6.87;;
13973;SDS011;7060;43.770;4.008;2022-10-19T01:48:51;8.20;;;7.40;;
13973;SDS011;7060;43.770;4.008;2022-10-19T01:51:24;8.23;;;7.43;;
13973;SDS011;7060;43.770;4.008;2022-10-19T01:53:57;8.80;;;7.30;;
13973;SDS011;7060;43.770;4.008;2022-10-19T01:56:29;8.93;;;7.10;;
13973;SDS011;7060;43.770;4.008;2022-10-19T01:58:59;8.77;;;7.97;;
13973;SDS011;7060;43.770;4.008;2022-10-19T02:01:33;7.93;;;6.73;;
13973;SDS011;7060;43.770;4.008;2022-10-19T02:04:04;13.30;;;7.43;;
13973;SDS011;7060;43.770;4.008;2022-10-19T02:06:33;10.97;;;8.40;;
13973;SDS011;7060;43.770;4.008;2022-10-19T02:09:02;9.13;;;7.10;;
13973;SDS011;7060;43.770;4.008;2022-10-19T02:11:31;10.00;;;7.83;;
13973;SDS011;7060;43.770;4.008;2022-10-19T02:14:03;9.67;;;8.20;;
13973;SDS011;7060;43.770;4.008;2022-10-19T02:16:37;11.67;;;9.60;;
13973;SDS011;7060;43.770;4.008;2022-10-19T02:19:08;8.83;;;7.93;;
13973;SDS011;7060;43.770;4.008;2022-10-19T02:21:39;9.43;;;8.50;;
13973;SDS011;7060;43.770;4.008;2022-10-19T02:24:08;10.83;;;7.70;;
13973;SDS011;7060;43.770;4.008;2022-10-19T02:26:36;9.00;;;8.10;;
13973;SDS011;7060;43.770;4.008;2022-10-19T02:29:07;10.63;;;7.07;;
13973;SDS011;7060;43.770;4.008;2022-10-19T02:31:39;8.63;;;7.07;;
13973;SDS011;7060;43.770;4.008;2022-10-19T02:34:08;10.40;;;7.60;;
13973;SDS011;7060;43.770;4.008;2022-10-19T02:36:37;10.90;;;9.40;;
13973;SDS011;7060;43.770;4.008;2022-10-19T02:39:06;8.93;;;7.23;;
13973;SDS011;7060;43.770;4.008;2022-10-19T02:41:37;7.07;;;6.40;;
13973;SDS011;7060;43.770;4.008;2022-10-19T02:44:12;9.33;;;8.13;;
13973;SDS011;7060;43.770;4.008;2022-10-19T02:46:48;8.00;;;7.20;;
13973;SDS011;7060;43.770;4.008;2022-10-19T02:49:20;12.97;;;6.60;;
13973;SDS011;7060;43.770;4.008;2022-10-19T02:51:56;8.07;;;6.90;;
13973;SDS011;7060;43.770;4.008;2022-10-19T02:54:26;7.90;;;6.87;;
13973;SDS011;7060;43.770;4.008;2022-10-19T02:56:55;9.60;;;8.17;;
13973;SDS011;7060;43.770;4.008;2022-10-19T02:59:24;11.20;;;7.33;;
13973;SDS011;7060;43.770;4.008;2022-10-19T03:01:54;9.67;;;7.40;;
13973;SDS011;7060;43.770;4.008;2022-10-19T03:04:23;8.03;;;6.93;;
13973;SDS011;7060;43.770;4.008;2022-10-19T03:06:51;10.40;;;6.93;;
13973;SDS011;7060;43.770;4.008;2022-10-19T03:09:19;9.57;;;6.40;;
13973;SDS011;7060;43.770;4.008;2022-10-19T03:11:48;8.83;;;7.20;;
13973;SDS011;7060;43.770;4.008;2022-10-19T03:14:16;8.23;;;6.57;;
13973;SDS011;7060;43.770;4.008;2022-10-19T03:16:45;8.47;;;5.93;;
13973;SDS011;7060;43.770;4.008;2022-10-19T03:19:14;7.47;;;6.00;;
13973;SDS011;7060;43.770;4.008;2022-10-19T03:21:43;9.17;;;6.97;;
13973;SDS011;7060;43.770;4.008;2022-10-19T03:24:12;7.23;;;6.50;;
13973;SDS011;7060;43.770;4.008;2022-10-19T03:26:40;8.60;;;6.60;;
13973;SDS011;7060;43.770;4.008;2022-10-19T03:29:09;10.53;;;6.80;;
13973;SDS011;7060;43.770;4.008;2022-10-19T03:31:37;12.50;;;7.80;;
13973;SDS011;7060;43.770;4.008;2022-10-19T03:34:06;7.23;;;6.13;;
13973;SDS011;7060;43.770;4.008;2022-10-19T03:36:36;9.13;;;7.23;;
13973;SDS011;7060;43.770;4.008;2022-10-19T03:39:06;9.03;;;6.40;;
13973;SDS011;7060;43.770;4.008;2022-10-19T03:41:37;7.10;;;5.90;;
13973;SDS011;7060;43.770;4.008;2022-10-19T03:44:06;9.53;;;6.57;;
13973;SDS011;7060;43.770;4.008;2022-10-19T03:46:35;10.80;;;7.03;;
13973;SDS011;7060;43.770;4.008;2022-10-19T03:49:04;6.70;;;5.63;;
13973;SDS011;7060;43.770;4.008;2022-10-19T03:51:33;8.00;;;6.83;;
13973;SDS011;7060;43.770;4.008;2022-10-19T03:54:05;9.53;;;6.97;;
13973;SDS011;7060;43.770;4.008;2022-10-19T03:56:35;8.43;;;6.90;;
13973;SDS011;7060;43.770;4.008;2022-10-19T03:59:04;8.97;;;7.10;;
13973;SDS011;7060;43.770;4.008;2022-10-19T04:01:34;9.13;;;6.60;;
13973;SDS011;7060;43.770;4.008;2022-10-19T04:04:11;8.17;;;5.93;;
13973;SDS011;7060;43.770;4.008;2022-10-19T04:06:42;8.00;;;6.40;;
13973;SDS011;7060;43.770;4.008;2022-10-19T04:09:13;9.53;;;6.20;;
13973;SDS011;7060;43.770;4.008;2022-10-19T04:11:43;9.00;;;5.73;;
13973;SDS011;7060;43.770;4.008;2022-10-19T04:14:11;9.97;;;6.27;;
13973;SDS011;7060;43.770;4.008;2022-10-19T04:16:58;7.77;;;5.73;;
13973;SDS011;7060;43.770;4.008;2022-10-19T04:19:27;7.10;;;6.40;;
13973;SDS011;7060;43.770;4.008;2022-10-19T04:21:55;6.93;;;6.17;;
13973;SDS011;7060;43.770;4.008;2022-10-19T04:24:27;10.90;;;6.17;;
13973;SDS011;7060;43.770;4.008;2022-10-19T04:26:55;8.23;;;6.80;;
13973;SDS011;7060;43.770;4.008;2022-10-19T04:29:24;9.67;;;5.83;;
13973;SDS011;7060;43.770;4.008;2022-10-19T04:31:56;9.57;;;6.20;;
13973;SDS011;7060;43.770;4.008;2022-10-19T04:34:26;9.90;;;6.37;;
13973;SDS011;7060;43.770;4.008;2022-10-19T04:36:56;10.40;;;6.27;;
13973;SDS011;7060;43.770;4.008;2022-10-19T04:39:29;8.80;;;5.83;;
13973;SDS011;7060;43.770;4.008;2022-10-19T04:42:01;9.03;;;6.17;;
13973;SDS011;7060;43.770;4.008;2022-10-19T04:44:35;8.03;;;6.13;;
13973;SDS011;7060;43.770;4.008;2022-10-19T04:47:08;7.87;;;5.70;;
13973;SDS011;7060;43.770;4.008;2022-10-19T04:49:41;6.93;;;6.10;;
13973;SDS011;7060;43.770;4.008;2022-10-19T04:52:09;11.37;;;6.50;;
13973;SDS011;7060;43.770;4.008;2022-10-19T04:54:39;11.60;;;7.00;;
13973;SDS011;7060;43.770;4.008;2022-10-19T04:57:07;9.03;;;7.00;;
13973;SDS011;7060;43.770;4.008;2022-10-19T04:59:35;8.40;;;5.50;;
13973;SDS011;7060;43.770;4.008;2022-10-19T05:02:04;6.97;;;6.27;;
13973;SDS011;7060;43.770;4.008;2022-10-19T05:04:33;8.90;;;5.70;;
13973;SDS011;7060;43.770;4.008;2022-10-19T05:07:02;10.10;;;6.43;;
13973;SDS011;7060;43.770;4.008;2022-10-19T05:09:31;8.33;;;5.77;;
13973;SDS011;7060;43.770;4.008;2022-10-19T05:12:01;9.03;;;5.77;;
13973;SDS011;7060;43.770;4.008;2022-10-19T05:14:31;7.47;;;5.30;;
13973;SDS011;7060;43.770;4.008;2022-10-19T05:17:04;10.37;;;7.20;;
13973;SDS011;7060;43.770;4.008;2022-10-19T05:19:32;7.73;;;6.10;;
13973;SDS011;7060;43.770;4.008;2022-10-19T05:22:01;6.80;;;6.17;;
13973;SDS011;7060;43.770;4.008;2022-10-19T05:24:29;7.30;;;5.77;;
13973;SDS011;7060;43.770;4.008;2022-10-19T05:27:00;8.73;;;6.00;;
13973;SDS011;7060;43.770;4.008;2022-10-19T05:29:29;6.53;;;5.73;;
13973;SDS011;7060;43.770;4.008;2022-10-19T05:32:00;9.17;;;6.17;;
13973;SDS011;7060;43.770;4.008;2022-10-19T05:34:28;6.77;;;6.07;;
13973;SDS011;7060;43.770;4.008;2022-10-19T05:36:57;7.17;;;5.80;;
13973;SDS011;7060;43.770;4.008;2022-10-19T05:39:26;6.17;;;5.43;;
13973;SDS011;7060;43.770;4.008;2022-10-19T05:41:54;8.23;;;5.80;;
13973;SDS011;7060;43.770;4.008;2022-10-19T05:44:24;8.77;;;5.83;;
13973;SDS011;7060;43.770;4.008;2022-10-19T05:46:53;10.20;;;5.80;;
13973;SDS011;7060;43.770;4.008;2022-10-19T05:49:22;13.20;;;5.90;;
13973;SDS011;7060;43.770;4.008;2022-10-19T05:51:51;9.47;;;5.10;;
13973;SDS011;7060;43.770;4.008;2022-10-19T05:54:20;7.90;;;6.17;;
13973;SDS011;7060;43.770;4.008;2022-10-19T05:56:53;5.63;;;4.80;;
13973;SDS011;7060;43.770;4.008;2022-10-19T05:59:22;7.03;;;5.70;;
13973;SDS011;7060;43.770;4.008;2022-10-19T06:01:52;8.87;;;6.13;;
13973;SDS011;7060;43.770;4.008;2022-10-19T06:04:20;6.33;;;5.60;;
13973;SDS011;7060;43.770;4.008;2022-10-19T06:06:48;11.87;;;5.70;;
13973;SDS011;7060;43.770;4.008;2022-10-19T06:09:17;10.90;;;6.27;;
13973;SDS011;7060;43.770;4.008;2022-10-19T06:11:45;11.23;;;6.07;;
13973;SDS011;7060;43.770;4.008;2022-10-19T06:14:15;9.80;;;6.63;;
13973;SDS011;7060;43.770;4.008;2022-10-19T06:16:43;11.00;;;6.30;;
13973;SDS011;7060;43.770;4.008;2022-10-19T06:19:13;12.40;;;6.27;;
13973;SDS011;7060;43.770;4.008;2022-10-19T06:21:42;7.47;;;5.90;;
13973;SDS011;7060;43.770;4.008;2022-10-19T06:24:12;5.60;;;5.10;;
13973;SDS011;7060;43.770;4.008;2022-10-19T06:26:40;8.53;;;6.10;;
13973;SDS011;7060;43.770;4.008;2022-10-19T06:29:09;8.20;;;6.00;;
13973;SDS011;7060;43.770;4.008;2022-10-19T06:31:37;7.47;;;6.60;;
13973;SDS011;7060;43.770;4.008;2022-10-19T06:34:05;9.63;;;6.83;;
13973;SDS011;7060;43.770;4.008;2022-10-19T06:36:35;10.67;;;7.80;;
13973;SDS011;7060;43.770;4.008;2022-10-19T06:39:05;17.97;;;14.43;;
13973;SDS011;7060;43.770;4.008;2022-10-19T06:41:33;17.90;;;11.70;;
13973;SDS011;7060;43.770;4.008;2022-10-19T06:44:16;8.80;;;7.47;;
13973;SDS011;7060;43.770;4.008;2022-10-19T06:46:45;10.87;;;7.50;;
13973;SDS011;7060;43.770;4.008;2022-10-19T06:49:13;11.37;;;7.40;;
13973;SDS011;7060;43.770;4.008;2022-10-19T06:51:43;8.47;;;7.23;;
13973;SDS011;7060;43.770;4.008;2022-10-19T06:54:11;9.73;;;7.23;;
13973;SDS011;7060;43.770;4.008;2022-10-19T06:56:40;9.33;;;5.90;;
13973;SDS011;7060;43.770;4.008;2022-10-19T06:59:08;8.93;;;5.97;;
13973;SDS011;7060;43.770;4.008;2022-10-19T07:01:40;8.57;;;7.00;;
13973;SDS011;7060;43.770;4.008;2022-10-19T07:04:08;11.93;;;6.17;;
13973;SDS011;7060;43.770;4.008;2022-10-19T07:06:36;7.50;;;6.30;;
13973;SDS011;7060;43.770;4.008;2022-10-19T07:09:06;12.93;;;10.97;;
13973;SDS011;7060;43.770;4.008;2022-10-19T07:11:35;15.40;;;11.00;;
13973;SDS011;7060;43.770;4.008;2022-10-19T07:14:07;11.33;;;6.60;;
13973;SDS011;7060;43.770;4.008;2022-10-19T07:16:36;9.87;;;5.90;;
13973;SDS011;7060;43.770;4.008;2022-10-19T07:19:04;7.27;;;5.47;;
13973;SDS011;7060;43.770;4.008;2022-10-19T07:21:33;9.90;;;6.63;;
13973;SDS011;7060;43.770;4.008;2022-10-19T07:24:07;9.03;;;6.03;;
13973;SDS011;7060;43.770;4.008;2022-10-19T07:26:36;11.67;;;6.77;;
13973;SDS011;7060;43.770;4.008;2022-10-19T07:29:05;9.53;;;7.30;;
13973;SDS011;7060;43.770;4.008;2022-10-19T07:31:33;7.03;;;5.77;;
13973;SDS011;7060;43.770;4.008;2022-10-19T07:34:03;7.63;;;5.93;;
13973;SDS011;7060;43.770;4.008;2022-10-19T07:36:32;6.73;;;5.57;;
13973;SDS011;7060;43.770;4.008;2022-10-19T07:39:02;12.30;;;5.90;;
13973;SDS011;7060;43.770;4.008;2022-10-19T07:41:34;10.37;;;5.80;;
13973;SDS011;7060;43.770;4.008;2022-10-19T07:44:03;8.77;;;5.60;;
13973;SDS011;7060;43.770;4.008;2022-10-19T07:46:32;9.60;;;5.87;;
13973;SDS011;7060;43.770;4.008;2022-10-19T07:49:03;9.17;;;5.07;;
13973;SDS011;7060;43.770;4.008;2022-10-19T07:51:32;8.97;;;5.40;;
13973;SDS011;7060;43.770;4.008;2022-10-19T07:54:00;6.83;;;5.07;;
13973;SDS011;7060;43.770;4.008;2022-10-19T07:56:29;6.47;;;4.60;;
13973;SDS011;7060;43.770;4.008;2022-10-19T07:59:00;8.67;;;4.43;;
13973;SDS011;7060;43.770;4.008;2022-10-19T08:01:31;7.57;;;4.93;;
13973;SDS011;7060;43.770;4.008;2022-10-19T08:04:02;8.60;;;4.50;;
13973;SDS011;7060;43.770;4.008;2022-10-19T08:06:51;10.20;;;5.20;;
13973;SDS011;7060;43.770;4.008;2022-10-19T08:09:19;7.97;;;5.00;;
13973;SDS011;7060;43.770;4.008;2022-10-19T08:12:08;9.57;;;5.07;;
13973;SDS011;7060;43.770;4.008;2022-10-19T08:14:43;6.73;;;5.20;;
13973;SDS011;7060;43.770;4.008;2022-10-19T08:17:14;6.67;;;4.97;;
13973;SDS011;7060;43.770;4.008;2022-10-19T08:19:43;6.47;;;5.07;;
13973;SDS011;7060;43.770;4.008;2022-10-19T08:22:12;7.43;;;4.90;;
13973;SDS011;7060;43.770;4.008;2022-10-19T08:24:40;12.43;;;5.13;;
13973;SDS011;7060;43.770;4.008;2022-10-19T08:27:09;7.90;;;5.07;;
13973;SDS011;7060;43.770;4.008;2022-10-19T08:29:37;9.73;;;5.27;;
13973;SDS011;7060;43.770;4.008;2022-10-19T08:32:08;8.33;;;5.17;;
13973;SDS011;7060;43.770;4.008;2022-10-19T08:34:36;9.53;;;4.67;;
13973;SDS011;7060;43.770;4.008;2022-10-19T08:37:05;5.77;;;4.60;;
13973;SDS011;7060;43.770;4.008;2022-10-19T08:39:53;7.97;;;5.23;;
13973;SDS011;7060;43.770;4.008;2022-10-19T08:42:22;11.40;;;5.27;;
13973;SDS011;7060;43.770;4.008;2022-10-19T08:45:00;8.10;;;4.47;;
13973;SDS011;7060;43.770;4.008;2022-10-19T08:47:43;6.73;;;4.97;;
13973;SDS011;7060;43.770;4.008;2022-10-19T08:50:25;7.30;;;4.70;;
13973;SDS011;7060;43.770;4.008;2022-10-19T08:52:59;8.83;;;4.37;;
13973;SDS011;7060;43.770;4.008;2022-10-19T08:55:32;8.97;;;5.17;;
13973;SDS011;7060;43.770;4.008;2022-10-19T08:58:17;9.33;;;4.60;;
13973;SDS011;7060;43.770;4.008;2022-10-19T09:00:58;8.00;;;5.30;;
13973;SDS011;7060;43.770;4.008;2022-10-19T09:03:37;10.00;;;6.30;;
13973;SDS011;7060;43.770;4.008;2022-10-19T09:06:22;9.97;;;5.80;;
13973;SDS011;7060;43.770;4.008;2022-10-19T09:08:56;9.30;;;6.17;;
13973;SDS011;7060;43.770;4.008;2022-10-19T09:11:26;7.47;;;5.17;;
13973;SDS011;7060;43.770;4.008;2022-10-19T09:13:57;13.27;;;5.73;;
13973;SDS011;7060;43.770;4.008;2022-10-19T09:16:32;8.43;;;4.67;;
13973;SDS011;7060;43.770;4.008;2022-10-19T09:19:04;7.67;;;4.20;;
13973;SDS011;7060;43.770;4.008;2022-10-19T09:21:41;7.30;;;4.97;;
13973;SDS011;7060;43.770;4.008;2022-10-19T09:24:16;8.47;;;5.23;;
13973;SDS011;7060;43.770;4.008;2022-10-19T09:26:55;9.60;;;5.17;;
13973;SDS011;7060;43.770;4.008;2022-10-19T09:29:27;9.07;;;5.37;;
13973;SDS011;7060;43.770;4.008;2022-10-19T09:32:04;11.57;;;4.70;;
13973;SDS011;7060;43.770;4.008;2022-10-19T09:34:39;10.03;;;4.97;;
13973;SDS011;7060;43.770;4.008;2022-10-19T09:37:10;9.73;;;5.70;;
13973;SDS011;7060;43.770;4.008;2022-10-19T09:39:50;14.17;;;5.60;;
13973;SDS011;7060;43.770;4.008;2022-10-19T09:42:21;10.77;;;4.83;;
13973;SDS011;7060;43.770;4.008;2022-10-19T09:44:55;7.13;;;5.00;;
13973;SDS011;7060;43.770;4.008;2022-10-19T09:47:28;9.90;;;5.47;;
13973;SDS011;7060;43.770;4.008;2022-10-19T09:50:07;7.50;;;5.10;;
13973;SDS011;7060;43.770;4.008;2022-10-19T09:52:43;10.57;;;5.30;;
13973;SDS011;7060;43.770;4.008;2022-10-19T09:55:20;9.77;;;5.23;;
13973;SDS011;7060;43.770;4.008;2022-10-19T09:58:01;8.90;;;5.53;;
13973;SDS011;7060;43.770;4.008;2022-10-19T10:00:33;9.90;;;5.57;;
13973;SDS011;7060;43.770;4.008;2022-10-19T10:03:03;7.40;;;5.37;;
13973;SDS011;7060;43.770;4.008;2022-10-19T10:05:35;7.80;;;5.03;;
13973;SDS011;7060;43.770;4.008;2022-10-19T10:08:10;6.43;;;5.53;;
13973;SDS011;7060;43.770;4.008;2022-10-19T10:10:41;8.53;;;6.17;;
13973;SDS011;7060;43.770;4.008;2022-10-19T10:13:14;6.53;;;5.47;;
13973;SDS011;7060;43.770;4.008;2022-10-19T10:15:46;11.03;;;5.60;;
13973;SDS011;7060;43.770;4.008;2022-10-19T10:18:18;8.87;;;5.70;;
13973;SDS011;7060;43.770;4.008;2022-10-19T10:20:56;9.20;;;6.47;;
13973;SDS011;7060;43.770;4.008;2022-10-19T10:23:27;9.40;;;5.63;;
13973;SDS011;7060;43.770;4.008;2022-10-19T10:28:52;6.30;;;5.63;;
13973;SDS011;7060;43.770;4.008;2022-10-19T10:31:28;9.00;;;6.13;;
13973;SDS011;7060;43.770;4.008;2022-10-19T10:34:10;9.43;;;5.90;;
13973;SDS011;7060;43.770;4.008;2022-10-19T10:36:59;9.57;;;6.03;;
13973;SDS011;7060;43.770;4.008;2022-10-19T10:39:28;8.43;;;5.87;;
13973;SDS011;7060;43.770;4.008;2022-10-19T10:41:59;8.87;;;5.87;;
13973;SDS011;7060;43.770;4.008;2022-10-19T10:44:36;10.40;;;6.00;;
13973;SDS011;7060;43.770;4.008;2022-10-19T10:47:05;7.83;;;6.30;;
13973;SDS011;7060;43.770;4.008;2022-10-19T10:49:41;10.87;;;6.30;;
13973;SDS011;7060;43.770;4.008;2022-10-19T10:52:14;9.83;;;6.03;;
13973;SDS011;7060;43.770;4.008;2022-10-19T10:54:55;9.17;;;6.80;;
13973;SDS011;7060;43.770;4.008;2022-10-19T10:57:26;11.30;;;6.93;;
13973;SDS011;7060;43.770;4.008;2022-10-19T11:00:01;9.10;;;5.83;;
13973;SDS011;7060;43.770;4.008;2022-10-19T11:02:35;7.93;;;6.33;;
13973;SDS011;7060;43.770;4.008;2022-10-19T11:05:14;9.47;;;6.57;;
13973;SDS011;7060;43.770;4.008;2022-10-19T11:07:48;9.13;;;6.37;;
13973;SDS011;7060;43.770;4.008;2022-10-19T11:10:23;11.83;;;6.43;;
13973;SDS011;7060;43.770;4.008;2022-10-19T11:12:57;10.60;;;6.53;;
13973;SDS011;7060;43.770;4.008;2022-10-19T11:15:34;10.13;;;6.80;;
13973;SDS011;7060;43.770;4.008;2022-10-19T11:18:11;11.80;;;7.00;;
13973;SDS011;7060;43.770;4.008;2022-10-19T11:20:47;13.70;;;7.07;;
13973;SDS011;7060;43.770;4.008;2022-10-19T11:23:26;12.97;;;7.27;;
13973;SDS011;7060;43.770;4.008;2022-10-19T11:26:09;10.50;;;6.37;;
13973;SDS011;7060;43.770;4.008;2022-10-19T11:28:51;9.03;;;7.00;;
13973;SDS011;7060;43.770;4.008;2022-10-19T11:31:29;11.90;;;7.20;;
13973;SDS011;7060;43.770;4.008;2022-10-19T11:34:09;11.67;;;6.83;;
13973;SDS011;7060;43.770;4.008;2022-10-19T11:36:52;7.53;;;5.80;;
13973;SDS011;7060;43.770;4.008;2022-10-19T11:39:32;10.33;;;7.17;;
13973;SDS011;7060;43.770;4.008;2022-10-19T11:42:12;13.07;;;7.00;;
13973;SDS011;7060;43.770;4.008;2022-10-19T11:44:48;10.20;;;7.40;;
13973;SDS011;7060;43.770;4.008;2022-10-19T11:47:34;13.30;;;7.60;;
13973;SDS011;7060;43.770;4.008;2022-10-19T11:50:25;10.93;;;7.57;;
13973;SDS011;7060;43.770;4.008;2022-10-19T11:53:02;10.23;;;6.93;;
13973;SDS011;7060;43.770;4.008;2022-10-19T11:55:42;8.10;;;6.93;;
13973;SDS011;7060;43.770;4.008;2022-10-19T11:58:21;9.47;;;6.60;;
13973;SDS011;7060;43.770;4.008;2022-10-19T12:01:02;15.93;;;7.70;;
13973;SDS011;7060;43.770;4.008;2022-10-19T12:03:52;9.67;;;7.03;;
13973;SDS011;7060;43.770;4.008;2022-10-19T12:06:42;9.10;;;7.03;;
13973;SDS011;7060;43.770;4.008;2022-10-19T12:09:22;11.10;;;7.67;;
13973;SDS011;7060;43.770;4.008;2022-10-19T12:12:05;9.57;;;6.90;;
13973;SDS011;7060;43.770;4.008;2022-10-19T12:14:45;16.30;;;7.67;;
13973;SDS011;7060;43.770;4.008;2022-10-19T12:17:19;8.63;;;7.67;;
13973;SDS011;7060;43.770;4.008;2022-10-19T12:19:54;10.37;;;6.87;;
13973;SDS011;7060;43.770;4.008;2022-10-19T12:22:27;12.17;;;7.20;;
13973;SDS011;7060;43.770;4.008;2022-10-19T12:24:57;10.47;;;7.43;;
13973;SDS011;7060;43.770;4.008;2022-10-19T12:27:31;11.30;;;7.40;;
13973;SDS011;7060;43.770;4.008;2022-10-19T12:30:03;9.80;;;7.30;;
13973;SDS011;7060;43.770;4.008;2022-10-19T12:32:38;7.70;;;6.77;;
13973;SDS011;7060;43.770;4.008;2022-10-19T12:35:26;8.83;;;6.80;;
13973;SDS011;7060;43.770;4.008;2022-10-19T12:38:07;13.40;;;7.53;;
13973;SDS011;7060;43.770;4.008;2022-10-19T12:40:44;8.70;;;6.47;;
13973;SDS011;7060;43.770;4.008;2022-10-19T12:43:19;7.90;;;7.10;;
13973;SDS011;7060;43.770;4.008;2022-10-19T12:45:58;9.33;;;7.40;;
13973;SDS011;7060;43.770;4.008;2022-10-19T12:48:37;9.20;;;7.20;;
13973;SDS011;7060;43.770;4.008;2022-10-19T12:51:10;10.37;;;7.00;;
13973;SDS011;7060;43.770;4.008;2022-10-19T12:53:44;15.00;;;8.20;;
13973;SDS011;7060;43.770;4.008;2022-10-19T12:56:16;9.27;;;6.87;;
13973;SDS011;7060;43.770;4.008;2022-10-19T12:58:50;12.43;;;7.77;;
13973;SDS011;7060;43.770;4.008;2022-10-19T13:01:22;10.93;;;7.73;;
13973;SDS011;7060;43.770;4.008;2022-10-19T13:04:04;11.53;;;7.53;;
13973;SDS011;7060;43.770;4.008;2022-10-19T13:06:37;11.40;;;7.43;;
13973;SDS011;7060;43.770;4.008;2022-10-19T13:09:18;15.50;;;7.13;;
13973;SDS011;7060;43.770;4.008;2022-10-19T13:21:50;11.47;;;7.23;;
13973;SDS011;7060;43.770;4.008;2022-10-19T13:24:40;11.10;;;7.05;;
13973;SDS011;7060;43.770;4.008;2022-10-19T13:30:56;9.13;;;7.17;;
13973;SDS011;7060;43.770;4.008;2022-10-19T13:36:19;7.67;;;6.83;;
13973;SDS011;7060;43.770;4.008;2022-10-19T13:39:09;12.75;;;7.20;;
13973;SDS011;7060;43.770;4.008;2022-10-19T13:41:44;15.48;;;7.97;;
13973;SDS011;7060;43.770;4.008;2022-10-19T13:44:17;13.88;;;7.53;;
13973;SDS011;7060;43.770;4.008;2022-10-19T13:46:53;8.32;;;6.43;;
13973;SDS011;7060;43.770;4.008;2022-10-19T13:49:42;11.65;;;7.20;;
13973;SDS011;7060;43.770;4.008;2022-10-19T13:52:30;12.55;;;7.63;;
13973;SDS011;7060;43.770;4.008;2022-10-19T13:55:20;11.07;;;6.35;;
13973;SDS011;7060;43.770;4.008;2022-10-19T13:58:06;12.20;;;7.18;;
13973;SDS011;7060;43.770;4.008;2022-10-19T14:00:54;13.10;;;7.72;;
13973;SDS011;7060;43.770;4.008;2022-10-19T14:03:38;10.93;;;7.57;;
13973;SDS011;7060;43.770;4.008;2022-10-19T14:06:22;16.10;;;7.78;;
13973;SDS011;7060;43.770;4.008;2022-10-19T14:09:14;14.67;;;7.60;;
13973;SDS011;7060;43.770;4.008;2022-10-19T14:11:53;12.93;;;7.65;;
13973;SDS011;7060;43.770;4.008;2022-10-19T14:14:37;12.27;;;7.70;;
13973;SDS011;7060;43.770;4.008;2022-10-19T14:17:13;12.73;;;7.38;;
13973;SDS011;7060;43.770;4.008;2022-10-19T14:19:49;11.50;;;7.20;;
13973;SDS011;7060;43.770;4.008;2022-10-19T14:22:22;12.27;;;7.97;;
13973;SDS011;7060;43.770;4.008;2022-10-19T14:24:58;12.35;;;7.68;;
13973;SDS011;7060;43.770;4.008;2022-10-19T14:27:29;14.75;;;8.20;;
13973;SDS011;7060;43.770;4.008;2022-10-19T14:29:59;15.10;;;8.02;;
13973;SDS011;7060;43.770;4.008;2022-10-19T14:32:27;12.40;;;7.18;;
13973;SDS011;7060;43.770;4.008;2022-10-19T14:35:01;13.38;;;8.20;;
13973;SDS011;7060;43.770;4.008;2022-10-19T14:37:32;14.63;;;7.93;;
13973;SDS011;7060;43.770;4.008;2022-10-19T14:40:03;13.60;;;7.47;;
13973;SDS011;7060;43.770;4.008;2022-10-19T14:42:38;14.82;;;9.15;;
13973;SDS011;7060;43.770;4.008;2022-10-19T14:45:13;15.60;;;8.30;;
13973;SDS011;7060;43.770;4.008;2022-10-19T14:47:50;13.98;;;8.38;;
13973;SDS011;7060;43.770;4.008;2022-10-19T14:50:21;16.23;;;9.75;;
13973;SDS011;7060;43.770;4.008;2022-10-19T14:52:54;14.85;;;8.48;;
13973;SDS011;7060;43.770;4.008;2022-10-19T14:55:25;15.27;;;8.90;;
13973;SDS011;7060;43.770;4.008;2022-10-19T14:58:10;12.77;;;8.20;;
13973;SDS011;7060;43.770;4.008;2022-10-19T15:00:43;14.80;;;9.07;;
13973;SDS011;7060;43.770;4.008;2022-10-19T15:03:16;16.85;;;9.55;;
13973;SDS011;7060;43.770;4.008;2022-10-19T15:05:50;17.23;;;8.30;;
13973;SDS011;7060;43.770;4.008;2022-10-19T15:08:24;16.88;;;9.10;;
13973;SDS011;7060;43.770;4.008;2022-10-19T15:11:03;17.17;;;8.90;;
13973;SDS011;7060;43.770;4.008;2022-10-19T15:13:37;16.50;;;9.35;;
13973;SDS011;7060;43.770;4.008;2022-10-19T15:19:02;15.82;;;10.75;;
13973;SDS011;7060;43.770;4.008;2022-10-19T15:21:33;19.80;;;9.27;;
13973;SDS011;7060;43.770;4.008;2022-10-19T15:24:05;18.02;;;10.52;;
13973;SDS011;7060;43.770;4.008;2022-10-19T15:26:35;15.27;;;9.57;;
13973;SDS011;7060;43.770;4.008;2022-10-19T15:29:08;15.10;;;9.55;;
13973;SDS011;7060;43.770;4.008;2022-10-19T15:31:45;16.60;;;9.43;;
13973;SDS011;7060;43.770;4.008;2022-10-19T15:34:21;11.45;;;9.52;;
13973;SDS011;7060;43.770;4.008;2022-10-19T15:36:55;15.80;;;10.10;;
13973;SDS011;7060;43.770;4.008;2022-10-19T15:39:27;15.30;;;9.48;;
13973;SDS011;7060;43.770;4.008;2022-10-19T15:42:20;12.02;;;9.20;;
13973;SDS011;7060;43.770;4.008;2022-10-19T15:44:51;11.75;;;9.05;;
13973;SDS011;7060;43.770;4.008;2022-10-19T15:47:21;17.15;;;9.32;;
13973;SDS011;7060;43.770;4.008;2022-10-19T15:49:55;16.70;;;9.23;;
13973;SDS011;7060;43.770;4.008;2022-10-19T15:52:26;15.27;;;9.40;;
13973;SDS011;7060;43.770;4.008;2022-10-19T15:54:56;18.88;;;9.27;;